Time;durP1;ratioP1;P1;durP2;ratioP2;P2;SDS_P1;SDS_P2;PMS_P1;PMS_P2;Temp;Humidity;BMP_temperature;BMP_pressure;BME280_temperature;BME280_humidity;BME280_pressure;Samples;Min_cycle;Max_cycle;Signal;HPM_P1;HPM_P2
2023/01/26 00:02:21;;;;;;;0.90;0.90;;;;;;;-4.63;89.71;99965.75;4993169;28;20046;-79
2023/01/26 00:04:49;;;;;;;0.90;0.90;;;;;;;-4.65;89.67;99940.50;4993247;28;20501;-79
2023/01/26 00:07:16;;;;;;;0.90;0.90;;;;;;;-4.72;90.12;99932.25;4993314;28;20050;-79
2023/01/26 00:09:43;;;;;;;0.88;0.88;;;;;;;-4.71;90.46;99927.81;4991647;28;20528;-79
2023/01/26 00:12:09;;;;;;;0.77;0.77;;;;;;;-4.69;90.35;99942.53;4993076;28;20049;-79
2023/01/26 00:14:57;;;;;;;0.65;0.65;;;;;;;-4.67;90.31;99950.31;5003912;28;20057;-80
2023/01/26 00:17:26;;;;;;;0.70;0.70;;;;;;;-4.64;89.91;99942.16;5010987;28;20071;-80
2023/01/26 00:19:55;;;;;;;0.65;0.65;;;;;;;-4.65;89.94;99943.97;4995409;28;20513;-78
2023/01/26 00:22:24;;;;;;;0.93;0.93;;;;;;;-4.65;90.42;99933.44;5010946;28;20049;-79
2023/01/26 00:24:51;;;;;;;0.70;0.70;;;;;;;-4.63;90.47;99930.69;5012421;28;20042;-79
2023/01/26 00:27:18;;;;;;;0.80;0.80;;;;;;;-4.60;90.45;99933.06;5011677;28;20065;-79
2023/01/26 00:29:45;;;;;;;0.70;0.70;;;;;;;-4.58;90.41;99946.94;5011107;28;20049;-80
2023/01/26 00:32:12;;;;;;;0.80;0.80;;;;;;;-4.62;90.33;99930.53;5011405;28;20050;-79
2023/01/26 00:34:40;;;;;;;0.80;0.80;;;;;;;-4.64;90.42;99937.72;5011683;28;20481;-79
2023/01/26 00:37:10;;;;;;;1.00;1.00;;;;;;;-4.66;90.55;99942.31;5012064;28;20492;-79
2023/01/26 00:39:37;;;;;;;0.70;0.70;;;;;;;-4.63;90.75;99938.59;5011859;28;20053;-78
2023/01/26 00:42:10;;;;;;;0.65;0.65;;;;;;;-4.63;90.73;99930.69;5011962;28;20671;-79
2023/01/26 00:44:37;;;;;;;0.73;0.73;;;;;;;-4.60;90.16;99935.69;5011780;28;20571;-78
2023/01/26 00:47:06;;;;;;;0.90;0.90;;;;;;;-4.60;90.22;99935.69;4994797;28;20108;-79
2023/01/26 00:49:34;;;;;;;0.75;0.75;;;;;;;-4.56;89.99;99945.00;4978580;28;20050;-79
2023/01/26 00:52:02;;;;;;;0.80;0.80;;;;;;;-4.62;89.36;99935.81;4962361;28;20532;-78
2023/01/26 00:54:29;;;;;;;0.95;0.95;;;;;;;-4.65;89.52;99937.88;4962022;28;20046;-79
2023/01/26 00:56:57;;;;;;;0.80;0.80;;;;;;;-4.65;89.30;99930.78;4978194;28;20057;-79
2023/01/26 00:59:24;;;;;;;0.70;0.70;;;;;;;-4.68;89.32;99922.31;4961799;28;20516;-77
2023/01/26 01:01:53;;;;;;;0.65;0.65;;;;;;;-4.70;89.46;99924.22;4962251;28;20073;-79
2023/01/26 01:04:20;;;;;;;0.80;0.80;;;;;;;-4.69;89.39;99924.09;4993984;28;20089;-79
2023/01/26 01:06:47;;;;;;;1.00;1.00;;;;;;;-4.69;89.32;99921.44;4961731;28;20050;-78
2023/01/26 01:09:17;;;;;;;1.00;1.00;;;;;;;-4.64;88.90;99921.09;4962468;28;20141;-79
2023/01/26 01:11:45;;;;;;;0.75;0.75;;;;;;;-4.69;88.78;99913.56;4994041;28;20073;-79
2023/01/26 01:14:13;;;;;;;0.90;0.90;;;;;;;-4.71;88.91;99906.75;4961386;28;20053;-79
2023/01/26 01:16:41;;;;;;;1.00;1.00;;;;;;;-4.72;88.60;99910.34;4977636;28;20053;-78
2023/01/26 01:19:13;;;;;;;0.60;0.60;;;;;;;-4.77;88.55;99912.50;4967054;28;20575;-79
2023/01/26 01:21:41;;;;;;;0.80;0.80;;;;;;;-4.75;88.90;99913.22;4945662;28;20061;-78
2023/01/26 01:24:10;;;;;;;0.90;0.90;;;;;;;-4.72;88.69;99908.53;4978161;28;20046;-80
2023/01/26 01:26:39;;;;;;;0.90;0.90;;;;;;;-4.75;88.63;99897.44;4977764;28;20077;-79
2023/01/26 01:29:11;;;;;;;0.80;0.80;;;;;;;-4.74;88.63;99896.47;4977670;28;20081;-78
2023/01/26 01:31:40;;;;;;;0.95;0.95;;;;;;;-4.74;88.91;99907.81;5009539;28;20072;-79
2023/01/26 01:34:08;;;;;;;0.85;0.85;;;;;;;-4.70;88.34;99897.88;5009533;28;20050;-79
2023/01/26 01:36:35;;;;;;;0.70;0.70;;;;;;;-4.71;88.16;99920.75;4977175;28;20140;-79
2023/01/26 01:39:02;;;;;;;0.80;0.80;;;;;;;-4.81;88.19;99901.38;5011082;28;20565;-80
2023/01/26 01:41:29;;;;;;;0.70;0.70;;;;;;;-4.82;88.33;99897.06;4993756;28;20052;-80
2023/01/26 01:44:17;;;;;;;0.73;0.73;;;;;;;-4.82;88.42;99890.00;4993413;28;20046;-79
2023/01/26 01:46:53;;;;;;;0.65;0.65;;;;;;;-4.81;88.23;99912.78;5010633;28;20073;-79
2023/01/26 01:49:39;;;;;;;0.95;0.95;;;;;;;-4.83;88.11;99906.78;5010866;28;20053;-79
2023/01/26 01:52:28;;;;;;;0.70;0.70;;;;;;;-4.81;88.23;99907.50;4977632;28;20050;-79
2023/01/26 01:55:00;;;;;;;0.60;0.60;;;;;;;-4.81;88.42;99902.22;4993274;28;20141;-78
2023/01/26 01:57:43;;;;;;;0.68;0.68;;;;;;;-4.76;88.34;99893.97;5009355;28;20060;-80
2023/01/26 02:00:16;;;;;;;0.80;0.80;;;;;;;-4.81;88.41;99886.44;5010719;28;20512;-80
2023/01/26 02:03:09;;;;;;;1.05;1.05;;;;;;;-4.81;88.43;99890.84;5010768;28;20531;-80
2023/01/26 02:05:33;;;;;;;0.82;0.82;;;;;;;-4.82;88.31;99886.53;4995940;28;20054;-80
2023/01/26 02:08:02;;;;;;;0.90;0.90;;;;;;;-4.82;88.65;99884.75;4977183;28;20116;-79
2023/01/26 02:10:29;;;;;;;0.68;0.68;;;;;;;-4.79;88.77;99888.91;4992985;28;20045;-79
2023/01/26 02:13:00;;;;;;;0.70;0.70;;;;;;;-4.89;88.55;99867.75;4992997;28;20057;-79
2023/01/26 02:15:30;;;;;;;0.90;0.90;;;;;;;-4.84;88.75;99886.66;5010075;28;20057;-79
2023/01/26 02:18:00;;;;;;;0.73;0.73;;;;;;;-4.75;88.20;99898.25;4993218;28;20519;-80
2023/01/26 02:20:42;;;;;;;0.80;0.80;;;;;;;-4.86;88.54;99883.34;4977002;28;20050;-79
2023/01/26 02:23:28;;;;;;;0.90;0.90;;;;;;;-4.80;88.70;99887.25;5008992;28;20509;-80
2023/01/26 02:25:56;;;;;;;0.90;0.90;;;;;;;-4.79;88.71;99905.56;5010496;28;20050;-79
2023/01/26 02:28:25;;;;;;;0.70;0.70;;;;;;;-4.75;88.76;99894.78;4992689;28;20050;-79
2023/01/26 02:30:53;;;;;;;0.70;0.70;;;;;;;-4.80;88.70;99885.47;5008972;28;20045;-79
2023/01/26 02:33:23;;;;;;;0.70;0.70;;;;;;;-4.74;88.56;99899.09;4992773;28;20501;-79
2023/01/26 02:35:54;;;;;;;0.90;0.90;;;;;;;-4.75;88.91;99895.63;4977338;28;20691;-80
2023/01/26 02:38:22;;;;;;;0.75;0.75;;;;;;;-4.76;88.58;99885.19;5010466;28;20073;-80
2023/01/26 02:40:53;;;;;;;0.80;0.80;;;;;;;-4.74;88.46;99878.84;5010361;28;20050;-79
2023/01/26 02:43:23;;;;;;;0.95;0.95;;;;;;;-4.78;88.34;99885.34;5009055;28;20049;-79
2023/01/26 02:45:50;;;;;;;0.90;0.90;;;;;;;-4.80;88.38;99871.47;4976788;28;20516;-79
2023/01/26 02:51:06;;;;;;;0.80;0.80;;;;;;;-4.77;88.60;99870.38;4992911;28;20053;-80
2023/01/26 02:53:33;;;;;;;0.90;0.90;;;;;;;-4.79;88.72;99871.31;4992739;28;20053;-80
2023/01/26 02:56:00;;;;;;;0.95;0.95;;;;;;;-4.82;88.69;99861.03;4975894;28;20054;-79
2023/01/26 02:58:27;;;;;;;0.75;0.75;;;;;;;-4.80;88.86;99855.66;5009557;28;20084;-78
2023/01/26 03:00:55;;;;;;;0.80;0.80;;;;;;;-4.82;88.69;99853.13;5010161;28;20053;-78
2023/01/26 03:03:24;;;;;;;0.90;0.90;;;;;;;-4.84;88.91;99849.78;4979638;28;20077;-78
2023/01/26 03:05:51;;;;;;;0.77;0.77;;;;;;;-4.86;88.96;99835.94;5006836;28;20042;-79
2023/01/26 03:08:18;;;;;;;0.80;0.80;;;;;;;-4.82;89.11;99853.13;5010433;28;20053;-79
2023/01/26 03:10:46;;;;;;;0.80;0.80;;;;;;;-4.80;89.05;99838.06;4993228;28;20140;-80
2023/01/26 03:13:13;;;;;;;0.80;0.80;;;;;;;-4.77;88.98;99859.84;4992689;28;20050;-79
2023/01/26 03:15:51;;;;;;;0.70;0.70;;;;;;;-4.79;88.90;99850.25;4979496;28;20048;-78
2023/01/26 03:29:33;;;;;;;0.80;0.80;;;;;;;-4.82;88.80;99844.41;4989186;28;20572;-80
2023/01/26 03:32:01;;;;;;;0.75;0.75;;;;;;;-4.74;88.67;99854.31;4989072;28;20613;-81
2023/01/26 03:34:29;;;;;;;0.90;0.90;;;;;;;-4.75;88.54;99842.94;4990642;28;20049;-81
2023/01/26 03:36:56;;;;;;;0.80;0.80;;;;;;;-4.79;88.47;99842.34;4995141;28;20127;-79
2023/01/26 03:59:14;;;;;;;0.60;0.60;;;;;;;-4.84;88.77;99854.22;4948353;29;20051;-80
2023/01/26 04:10:13;;;;;;;0.80;0.80;;;;;;;-4.87;88.20;99850.03;4948518;29;20059;-81
2023/01/26 04:12:41;;;;;;;0.60;0.60;;;;;;;-4.85;88.23;99858.66;4935228;29;20081;-80
2023/01/26 04:23:45;;;;;;;0.63;0.63;;;;;;;-4.80;88.34;99843.31;4954415;28;20149;-81
2023/01/26 04:26:13;;;;;;;0.70;0.70;;;;;;;-4.77;87.99;99850.13;4954491;28;20521;-80
2023/01/26 04:28:41;;;;;;;0.77;0.77;;;;;;;-4.77;87.72;99849.31;4953854;28;20154;-80
2023/01/26 04:31:08;;;;;;;0.73;0.73;;;;;;;-4.80;87.99;99845.13;4954265;28;20449;-81
2023/01/26 04:33:36;;;;;;;0.70;0.70;;;;;;;-4.80;87.89;99851.22;4953951;28;20133;-80
2023/01/26 04:36:05;;;;;;;0.77;0.77;;;;;;;-4.79;87.76;99858.16;4978449;28;20062;-81
2023/01/26 04:38:34;;;;;;;0.73;0.73;;;;;;;-4.79;87.67;99852.06;4990772;28;20105;-81
2023/01/26 04:41:01;;;;;;;0.85;0.85;;;;;;;-4.77;87.35;99846.66;4990586;28;20085;-81
2023/01/26 04:43:36;;;;;;;0.90;0.90;;;;;;;-4.77;87.55;99850.13;4991228;28;20054;-83
2023/01/26 04:46:06;;;;;;;0.70;0.70;;;;;;;-4.81;87.57;99841.66;4990360;28;20050;-80
2023/01/26 04:48:34;;;;;;;0.93;0.93;;;;;;;-4.76;87.51;99840.44;4990217;28;20054;-81
2023/01/26 04:51:04;;;;;;;0.80;0.80;;;;;;;-4.77;87.34;99844.03;4991817;28;20046;-81
2023/01/26 04:53:32;;;;;;;0.70;0.70;;;;;;;-4.74;87.17;99827.97;4989968;28;20050;-82
2023/01/26 04:55:59;;;;;;;0.80;0.80;;;;;;;-4.75;87.21;99847.38;4990513;28;20058;-81
2023/01/26 04:58:28;;;;;;;0.70;0.70;;;;;;;-4.75;87.06;99836.84;4974061;28;20050;-81
2023/01/26 05:00:57;;;;;;;0.80;0.80;;;;;;;-4.76;87.19;99843.06;4994624;28;20125;-81
2023/01/26 05:03:25;;;;;;;0.70;0.70;;;;;;;-4.76;86.96;99843.06;4990322;28;20533;-81
2023/01/26 05:05:53;;;;;;;0.80;0.80;;;;;;;-4.81;87.09;99841.66;4990225;28;20069;-81
2023/01/26 05:08:23;;;;;;;0.98;0.98;;;;;;;-4.77;87.19;99844.03;4995718;28;20049;-79
2023/01/26 05:10:51;;;;;;;0.70;0.70;;;;;;;-4.76;87.10;99843.94;4982374;28;20050;-81
2023/01/26 05:13:22;;;;;;;0.80;0.80;;;;;;;-4.80;86.99;99843.31;4989044;28;20058;-80
2023/01/26 05:16:02;;;;;;;0.88;0.88;;;;;;;-4.73;86.79;99846.31;4627026;28;10000595;-82
2023/01/26 05:19:05;;;;;;;0.80;0.80;;;;;;;-4.77;87.09;99844.88;4979018;28;20152;-81
2023/01/26 05:21:55;;;;;;;0.70;0.70;;;;;;;-4.74;86.56;99847.25;4991800;28;20077;-80
2023/01/26 05:24:22;;;;;;;0.90;0.90;;;;;;;-4.73;86.75;99850.75;4977674;28;20050;-79
2023/01/26 05:29:48;;;;;;;0.90;0.90;;;;;;;-4.76;86.82;99857.09;4986639;28;20054;-79
2023/01/26 05:32:15;;;;;;;0.80;0.80;;;;;;;-4.77;86.42;99829.06;4984625;28;20049;-80
2023/01/26 05:34:42;;;;;;;1.00;1.00;;;;;;;-4.75;86.43;99826.31;4977172;28;20127;-81
2023/01/26 05:37:10;;;;;;;0.80;0.80;;;;;;;-4.80;87.03;99829.31;4999728;28;20050;-81
2023/01/26 05:39:43;;;;;;;0.80;0.80;;;;;;;-4.79;87.15;99837.09;4988735;28;20230;-80
2023/01/26 05:42:11;;;;;;;0.77;0.77;;;;;;;-4.75;86.89;99826.31;4987790;28;20046;-82
2023/01/26 05:45:17;;;;;;;0.90;0.90;;;;;;;-4.74;86.80;99812.19;4970115;28;20165;-82
2023/01/26 05:47:47;;;;;;;0.70;0.70;;;;;;;-4.74;86.84;99806.91;4995879;28;20046;-81
2023/01/26 05:50:14;;;;;;;0.82;0.82;;;;;;;-4.71;86.58;99822.44;4986298;28;20052;-80
2023/01/26 05:52:45;;;;;;;0.80;0.80;;;;;;;-4.73;86.45;99813.88;4969959;28;20049;-80
2023/01/26 05:55:16;;;;;;;0.90;0.90;;;;;;;-4.73;86.57;99811.22;4990509;28;20054;-81
2023/01/26 05:57:57;;;;;;;0.70;0.70;;;;;;;-4.72;86.62;99818.16;4995156;28;20086;-81
2023/01/26 06:00:25;;;;;;;0.80;0.80;;;;;;;-4.74;86.82;99839.34;4986118;28;20049;-81
2023/01/26 06:03:00;;;;;;;0.80;0.80;;;;;;;-4.69;86.64;99823.16;4978800;28;20145;-81
2023/01/26 06:05:27;;;;;;;0.73;0.73;;;;;;;-4.68;86.42;99830.13;4982764;28;20129;-81
2023/01/26 06:07:58;;;;;;;0.90;0.90;;;;;;;-4.68;86.19;99827.50;4994171;28;20103;-80
2023/01/26 06:10:40;;;;;;;0.80;0.80;;;;;;;-4.68;86.54;99817.78;4988809;28;21075;-80
2023/01/26 06:13:29;;;;;;;0.82;0.82;;;;;;;-4.63;86.29;99833.22;4997842;28;20061;-79
2023/01/26 06:16:15;;;;;;;1.08;1.08;;;;;;;-4.65;86.46;99819.31;4977499;28;20137;-80
2023/01/26 06:18:47;;;;;;;0.90;0.90;;;;;;;-4.62;86.43;99833.06;4983585;28;20624;-81
2023/01/26 06:21:15;;;;;;;0.80;0.80;;;;;;;-4.62;86.51;99830.44;4985270;28;20086;-79
2023/01/26 06:23:43;;;;;;;0.80;0.80;;;;;;;-4.59;86.07;99827.53;4987220;28;20054;-80
2023/01/26 06:26:10;;;;;;;0.80;0.80;;;;;;;-4.54;86.11;99813.16;4988719;28;20046;-79
2023/01/26 06:28:38;;;;;;;0.70;0.70;;;;;;;-4.54;85.88;99816.63;4988083;28;20111;-79
2023/01/26 06:31:07;;;;;;;0.68;0.68;;;;;;;-4.53;85.88;99823.59;4986509;28;20049;-80
2023/01/26 06:33:35;;;;;;;0.73;0.73;;;;;;;-4.55;85.82;99828.13;5002829;28;20049;-79
2023/01/26 06:36:08;;;;;;;0.80;0.80;;;;;;;-4.55;86.10;99798.31;4988207;28;20505;-79
2023/01/26 06:38:36;;;;;;;0.90;0.90;;;;;;;-4.57;86.37;99801.06;4969599;28;20053;-80
2023/01/26 06:41:06;;;;;;;0.73;0.73;;;;;;;-4.49;85.56;99805.69;5001996;28;20054;-80
2023/01/26 06:43:34;;;;;;;0.68;0.68;;;;;;;-4.51;85.64;99816.34;4972104;28;20050;-81
2023/01/26 06:46:03;;;;;;;0.82;0.82;;;;;;;-4.47;85.85;99804.59;4994665;28;20575;-82
2023/01/26 06:48:33;;;;;;;0.82;0.82;;;;;;;-4.44;85.63;99806.16;4990171;28;20077;-80
2023/01/26 06:51:14;;;;;;;0.90;0.90;;;;;;;-4.41;85.57;99809.34;5000145;28;20050;-83
2023/01/26 06:53:53;;;;;;;0.75;0.75;;;;;;;-4.43;85.41;99795.50;5002814;28;20116;-79
2023/01/26 06:56:46;;;;;;;0.90;0.90;;;;;;;-4.44;85.47;99799.06;4982235;28;20058;-83
2023/01/26 06:59:27;;;;;;;0.85;0.85;;;;;;;-4.43;85.56;99800.78;5009610;28;20064;-82
2023/01/26 07:02:17;;;;;;;1.00;1.00;;;;;;;-4.38;85.66;99801.22;4996446;28;20046;-81
2023/01/26 07:04:45;;;;;;;0.85;0.85;;;;;;;-4.36;85.73;99807.16;4985310;28;20054;-80
2023/01/26 07:07:13;;;;;;;0.80;0.80;;;;;;;-4.29;85.57;99809.31;4998034;28;20129;-79
2023/01/26 07:09:44;;;;;;;0.90;0.90;;;;;;;-4.28;85.50;99800.41;5004299;28;20053;-80
2023/01/26 07:12:15;;;;;;;0.90;0.90;;;;;;;-4.29;85.37;99788.22;4962609;28;20080;-78
2023/01/26 07:14:45;;;;;;;1.00;1.00;;;;;;;-4.28;85.31;99795.16;4972773;28;20391;-82
2023/01/26 07:17:18;;;;;;;1.10;1.10;;;;;;;-4.22;85.26;99789.38;4972223;28;20070;-82
2023/01/26 07:19:50;;;;;;;0.90;0.90;;;;;;;-4.22;85.15;99781.47;4958455;28;20527;-81
2023/01/26 07:22:18;;;;;;;0.80;0.80;;;;;;;-4.17;84.91;99790.63;4940674;28;20055;-80
2023/01/26 07:24:47;;;;;;;0.70;0.70;;;;;;;-4.11;84.76;99799.81;4925617;28;20054;-79
2023/01/26 07:27:16;;;;;;;0.93;0.93;;;;;;;-4.09;84.80;99791.78;4940956;28;21069;-82
2023/01/26 07:29:45;;;;;;;0.85;0.85;;;;;;;-4.12;84.82;99786.78;4973311;28;20625;-80
2023/01/26 07:32:15;;;;;;;0.85;0.85;;;;;;;-4.05;84.97;99799.31;4957303;28;20050;-79
2023/01/26 07:34:45;;;;;;;0.80;0.80;;;;;;;-4.06;84.25;99780.97;4953527;28;20054;-79
2023/01/26 07:37:16;;;;;;;0.80;0.80;;;;;;;-4.12;84.28;99776.25;4940481;28;20050;-82
2023/01/26 07:39:45;;;;;;;0.77;0.77;;;;;;;-4.03;84.56;99797.34;4956272;28;20054;-80
2023/01/26 07:42:12;;;;;;;0.70;0.70;;;;;;;-4.03;84.00;99789.44;4949031;28;20517;-80
2023/01/26 07:44:49;;;;;;;0.75;0.75;;;;;;;-4.08;84.04;99782.91;4957902;28;20141;-78
2023/01/26 07:47:20;;;;;;;0.80;0.80;;;;;;;-4.08;84.04;99778.47;4956399;28;20073;-81
2023/01/26 07:49:51;;;;;;;0.70;0.70;;;;;;;-4.03;84.28;99802.63;4971445;28;20729;-81
2023/01/26 07:52:21;;;;;;;0.85;0.85;;;;;;;-4.00;83.97;99805.03;4973811;28;20046;-80
2023/01/26 07:54:52;;;;;;;1.05;1.05;;;;;;;-3.97;84.27;99811.84;4975301;28;20047;-79
2023/01/26 07:57:21;;;;;;;0.80;0.80;;;;;;;-3.98;84.49;99784.59;4971851;28;20146;-80
2023/01/26 07:59:55;;;;;;;0.98;0.98;;;;;;;-3.86;84.18;99797.72;4945973;28;20054;-82
2023/01/26 08:02:26;;;;;;;1.00;1.00;;;;;;;-3.90;84.06;99791.84;4922546;28;20062;-80
2023/01/26 08:04:56;;;;;;;1.08;1.08;;;;;;;-3.84;84.25;99803.72;4938958;28;20058;-81
2023/01/26 08:07:37;;;;;;;0.90;0.90;;;;;;;-3.79;83.88;99796.22;4935304;28;20074;-80
2023/01/26 08:10:05;;;;;;;0.80;0.80;;;;;;;-3.69;83.90;99786.53;4942960;28;20054;-80
2023/01/26 08:12:44;;;;;;;1.00;1.00;;;;;;;-3.59;83.25;99790.03;4958887;28;20064;-81
2023/01/26 08:15:39;;;;;;;0.88;0.88;;;;;;;-3.64;83.22;99789.63;4939193;28;20056;-80
2023/01/26 08:18:12;;;;;;;0.80;0.80;;;;;;;-3.66;82.79;99782.81;4934241;28;20116;-79
2023/01/26 08:20:53;;;;;;;1.00;1.00;;;;;;;-3.63;83.12;99771.97;4924377;28;20521;-81
2023/01/26 08:23:50;;;;;;;0.90;0.90;;;;;;;-3.58;82.95;99775.03;4960537;28;20105;-80
2023/01/26 08:26:18;;;;;;;0.90;0.90;;;;;;;-3.55;83.07;99772.94;4930398;28;20062;-80
2023/01/26 08:28:47;;;;;;;0.90;0.90;;;;;;;-3.54;82.52;99766.72;4947896;28;20074;-81
2023/01/26 08:31:23;;;;;;;0.80;0.80;;;;;;;-3.57;82.83;99768.78;4965352;28;20046;-80
2023/01/26 08:33:59;;;;;;;0.63;0.63;;;;;;;-3.57;82.78;99761.72;4971388;28;20430;-80
2023/01/26 08:36:28;;;;;;;0.75;0.75;;;;;;;-3.53;82.53;99747.28;4970572;28;20612;-80
2023/01/26 08:38:55;;;;;;;0.80;0.80;;;;;;;-3.44;82.60;99765.88;4984575;28;20057;-80
2023/01/26 08:41:22;;;;;;;0.80;0.80;;;;;;;-3.47;82.38;99760.88;4978277;28;20173;-80
2023/01/26 08:43:50;;;;;;;0.75;0.75;;;;;;;-3.39;82.75;99763.69;4981903;28;20068;-81
2023/01/26 08:46:17;;;;;;;0.70;0.70;;;;;;;-3.36;82.55;99755.50;4985786;28;20055;-80
2023/01/26 08:48:49;;;;;;;0.85;0.85;;;;;;;-3.33;82.17;99763.97;4982118;28;20145;-80
2023/01/26 08:51:16;;;;;;;0.77;0.77;;;;;;;-3.38;81.83;99749.53;4981387;28;20046;-80
2023/01/26 08:53:44;;;;;;;0.80;0.80;;;;;;;-3.49;81.96;99719.66;4986027;28;20076;-82
2023/01/26 08:56:12;;;;;;;0.80;0.80;;;;;;;-3.34;82.40;99748.25;4980140;28;20559;-81
2023/01/26 08:58:39;;;;;;;0.80;0.80;;;;;;;-3.27;82.15;99749.38;4989672;28;20058;-82
2023/01/26 09:01:11;;;;;;;0.82;0.82;;;;;;;-3.30;81.78;99736.47;4990959;28;20042;-79
2023/01/26 09:03:38;;;;;;;0.80;0.80;;;;;;;-3.21;82.17;99767.34;4983464;28;20054;-81
2023/01/26 09:06:06;;;;;;;0.90;0.90;;;;;;;-3.19;81.88;99752.19;4982234;28;20149;-83
2023/01/26 09:08:33;;;;;;;0.80;0.80;;;;;;;-3.11;81.76;99754.16;5000168;28;20047;-81
2023/01/26 09:11:01;;;;;;;0.93;0.93;;;;;;;-3.27;81.32;99744.97;4998359;28;20051;-81
2023/01/26 09:13:27;;;;;;;0.90;0.90;;;;;;;-3.24;81.63;99746.50;4992319;28;20190;-81
2023/01/26 09:15:55;;;;;;;0.70;0.70;;;;;;;-3.19;81.87;99746.91;5004305;28;20134;-81
2023/01/26 09:18:22;;;;;;;0.77;0.77;;;;;;;-3.17;81.76;99749.41;5002659;28;20049;-79
2023/01/26 09:20:50;;;;;;;0.90;0.90;;;;;;;-3.21;81.87;99748.84;4990454;28;20081;-80
2023/01/26 09:23:17;;;;;;;1.08;1.08;;;;;;;-3.24;81.81;99745.63;4997005;28;20517;-78
2023/01/26 09:25:44;;;;;;;1.00;1.00;;;;;;;-3.24;81.79;99735.94;4982590;28;20424;-79
2023/01/26 09:28:11;;;;;;;0.90;0.90;;;;;;;-3.28;82.31;99745.91;5002102;28;20088;-79
2023/01/26 09:30:39;;;;;;;0.80;0.80;;;;;;;-3.26;82.08;99727.31;5010559;28;20068;-81
2023/01/26 09:33:07;;;;;;;0.80;0.80;;;;;;;-3.25;82.55;99734.25;5009636;28;20107;-80
2023/01/26 09:35:34;;;;;;;0.90;0.90;;;;;;;-3.24;82.07;99741.22;4993661;28;20140;-80
2023/01/26 09:38:01;;;;;;;0.93;0.93;;;;;;;-3.30;82.24;99741.75;4999849;28;20054;-84
2023/01/26 09:40:49;;;;;;;0.90;0.90;;;;;;;-3.27;82.43;99728.28;5010919;28;20096;-82
2023/01/26 09:43:28;;;;;;;1.00;1.00;;;;;;;-3.28;82.48;99738.00;5010775;28;20046;-79
2023/01/26 09:46:25;;;;;;;0.85;0.85;;;;;;;-3.29;82.54;99724.97;4992626;28;20050;-82
2023/01/26 09:49:00;;;;;;;0.80;0.80;;;;;;;-3.28;82.66;99713.41;5001134;28;20455;-81
2023/01/26 09:51:41;;;;;;;;;;;;;;;-3.24;82.84;99720.09;4992063;28;20054;-82
2023/01/26 09:54:16;;;;;;;0.90;0.90;;;;;;;-3.19;82.56;99722.28;5003972;28;20305;-81
2023/01/26 09:56:44;;;;;;;0.73;0.73;;;;;;;-3.17;82.67;99715.06;5008713;28;20476;-82
2023/01/26 09:59:22;;;;;;;1.10;1.10;;;;;;;-3.16;82.70;99714.94;4985128;28;20061;-82
2023/01/26 10:01:59;;;;;;;0.90;0.90;;;;;;;-3.08;82.68;99715.09;4991091;28;20461;-82
2023/01/26 10:04:35;;;;;;;0.93;0.93;;;;;;;-3.09;82.47;99712.56;4992322;28;20053;-81
2023/01/26 10:07:08;;;;;;;0.75;0.75;;;;;;;-3.02;82.41;99723.41;5009807;28;20830;-80
2023/01/26 10:09:49;;;;;;;0.90;0.90;;;;;;;-3.00;82.41;99718.84;4994242;28;20050;-82
2023/01/26 10:12:20;;;;;;;1.00;1.00;;;;;;;-3.03;82.40;99713.84;5009408;28;20516;-80
2023/01/26 10:15:00;;;;;;;0.80;0.80;;;;;;;-3.03;82.42;99721.75;5003919;28;20412;-82
2023/01/26 10:17:41;;;;;;;0.80;0.80;;;;;;;-2.98;82.34;99730.94;4942022;28;20050;-81
2023/01/26 10:20:13;;;;;;;0.82;0.82;;;;;;;-3.02;81.99;99718.97;4954375;28;20054;-81
2023/01/26 10:22:50;;;;;;;0.68;0.68;;;;;;;-2.98;82.40;99719.53;4987081;28;20049;-78
2023/01/26 10:25:40;;;;;;;0.90;0.90;;;;;;;-2.96;82.53;99717.56;4988727;28;20054;-82
2023/01/26 10:28:29;;;;;;;0.88;0.88;;;;;;;-2.90;82.45;99709.09;4634767;28;9999890;-81
2023/01/26 10:30:56;;;;;;;0.80;0.80;;;;;;;-2.93;82.31;99712.84;4979525;28;20083;-81
2023/01/26 10:33:33;;;;;;;0.80;0.80;;;;;;;-2.90;82.35;99706.44;4975084;28;20054;-82
2023/01/26 10:36:02;;;;;;;0.90;0.90;;;;;;;-2.93;82.21;99715.50;4978477;28;20051;-81
2023/01/26 10:38:32;;;;;;;1.00;1.00;;;;;;;-2.90;82.21;99723.13;4979926;28;20087;-81
2023/01/26 10:41:01;;;;;;;0.90;0.90;;;;;;;-2.96;82.03;99722.84;4977752;28;20188;-82
2023/01/26 10:43:28;;;;;;;1.00;1.00;;;;;;;-3.03;82.41;99706.75;4985976;28;20505;-81
2023/01/26 10:45:58;;;;;;;1.05;1.05;;;;;;;-2.99;82.48;99704.66;4983814;28;20050;-79
2023/01/26 10:48:25;;;;;;;1.00;1.00;;;;;;;-2.99;82.59;99704.66;4989467;28;20913;-82
2023/01/26 10:50:53;;;;;;;0.98;0.98;;;;;;;-2.91;82.75;99696.84;4990483;28;20054;-82
2023/01/26 10:53:28;;;;;;;0.88;0.88;;;;;;;-2.87;82.34;99691.13;4988833;28;20046;-82
2023/01/26 10:56:15;;;;;;;;;;;;;;;-2.88;82.50;99678.91;4990732;28;20049;-81
2023/01/26 10:58:49;;;;;;;1.00;1.00;;;;;;;-2.87;82.44;99691.13;4989369;28;19926;-82
2023/01/26 11:01:17;;;;;;;0.90;0.90;;;;;;;-2.89;82.39;99685.16;4987950;28;20062;-82
2023/01/26 11:04:03;;;;;;;0.90;0.90;;;;;;;-2.92;82.17;99674.06;4988333;28;20042;-82
2023/01/26 11:06:31;;;;;;;0.90;0.90;;;;;;;-2.99;82.57;99665.03;4989545;28;20165;-81
2023/01/26 11:09:15;;;;;;;0.90;0.90;;;;;;;-2.94;82.66;99671.53;4990192;28;20428;-82
2023/01/26 11:11:54;;;;;;;0.95;0.95;;;;;;;-2.93;83.09;99670.59;4990451;28;20053;-82
2023/01/26 11:14:21;;;;;;;0.82;0.82;;;;;;;-2.90;83.15;99658.91;4991915;28;20061;-80
2023/01/26 11:17:07;;;;;;;0.85;0.85;;;;;;;-2.85;83.24;99669.88;4997826;28;20417;-82
2023/01/26 11:19:55;;;;;;;0.90;0.90;;;;;;;-2.86;82.91;99660.28;5006146;28;20077;-78
2023/01/26 11:22:44;;;;;;;0.90;0.90;;;;;;;-2.90;82.86;99661.53;4988753;28;20050;-81
2023/01/26 11:25:27;;;;;;;1.02;1.02;;;;;;;-2.90;83.13;99654.44;4992224;28;20140;-81
2023/01/26 11:28:08;;;;;;;0.90;0.90;;;;;;;-2.90;83.14;99657.09;4956879;28;20630;-81
2023/01/26 11:31:00;;;;;;;0.73;0.73;;;;;;;-2.80;83.22;99658.88;4990392;28;20061;-81
2023/01/26 11:33:45;;;;;;;0.90;0.90;;;;;;;-2.92;82.52;99661.69;4963932;28;20064;-81
2023/01/26 11:36:19;;;;;;;0.73;0.73;;;;;;;-3.05;83.18;99654.06;5004646;28;20046;-81
2023/01/26 11:39:16;;;;;;;0.80;0.80;;;;;;;-2.98;83.50;99662.25;5006248;28;20425;-83
2023/01/26 11:42:09;;;;;;;0.80;0.80;;;;;;;-2.93;83.59;99648.63;4963052;28;20073;-82
2023/01/26 11:44:55;;;;;;;0.80;0.80;;;;;;;-2.88;83.45;99635.81;4985175;28;20236;-81
2023/01/26 11:47:31;;;;;;;0.80;0.80;;;;;;;-2.94;83.17;99639.84;4999054;28;20057;-83
2023/01/26 11:50:18;;;;;;;0.80;0.80;;;;;;;-2.94;83.32;99639.03;5003676;28;20050;-81
2023/01/26 11:52:51;;;;;;;0.80;0.80;;;;;;;-2.94;83.79;99652.22;4985607;28;20049;-81
2023/01/26 11:55:44;;;;;;;0.82;0.82;;;;;;;-2.95;83.77;99648.75;4993889;28;20417;-80
2023/01/26 11:58:30;;;;;;;1.00;1.00;;;;;;;-2.90;83.96;99653.63;4990261;28;20043;-80
2023/01/26 12:01:02;;;;;;;0.80;0.80;;;;;;;-2.90;83.87;99646.53;4997216;28;20104;-83
2023/01/26 12:03:49;;;;;;;0.98;0.98;;;;;;;-2.92;84.07;99643.19;4984827;28;20061;-82
2023/01/26 12:06:22;;;;;;;0.75;0.75;;;;;;;-2.89;83.77;99639.44;4995335;28;20070;-83
2023/01/26 12:09:02;;;;;;;0.90;0.90;;;;;;;-2.92;83.76;99645.81;4999544;28;20097;-80
2023/01/26 12:11:42;;;;;;;0.80;0.80;;;;;;;-2.95;83.87;99627.63;4998147;28;20054;-81
2023/01/26 12:14:17;;;;;;;0.80;0.80;;;;;;;-2.92;84.05;99652.94;4970243;28;20723;-85
2023/01/26 12:17:12;;;;;;;0.90;0.90;;;;;;;-2.96;83.89;99638.31;4976531;28;20068;-80
2023/01/26 12:19:47;;;;;;;1.00;1.00;;;;;;;-2.94;84.04;99629.28;4993149;28;20059;-81
2023/01/26 12:22:36;;;;;;;0.70;0.70;;;;;;;-2.91;84.23;99636.09;4999916;28;20046;-80
2023/01/26 12:25:15;;;;;;;0.93;0.93;;;;;;;-2.89;84.37;99637.59;4987350;28;20782;-80
2023/01/26 12:28:10;;;;;;;0.80;0.80;;;;;;;-2.86;84.07;99628.56;4988325;28;20055;-80
2023/01/26 12:31:01;;;;;;;0.80;0.80;;;;;;;-2.90;83.96;99635.13;4998904;28;20058;-81
2023/01/26 12:33:29;;;;;;;0.80;0.80;;;;;;;-2.97;84.05;99620.81;4985036;28;20132;-80
2023/01/26 12:36:16;;;;;;;0.85;0.85;;;;;;;-3.01;84.52;99635.28;5002064;28;20058;-81
2023/01/26 12:39:12;;;;;;;0.90;0.90;;;;;;;-2.97;84.96;99615.53;4986948;28;20694;-82
2023/01/26 12:42:13;;;;;;;0.90;0.90;;;;;;;-2.94;84.88;99604.69;4987698;28;20757;-82
2023/01/26 12:44:43;;;;;;;1.00;1.00;;;;;;;-2.94;84.79;99615.25;4987527;28;20406;-80
2023/01/26 12:47:23;;;;;;;0.90;0.90;;;;;;;-2.89;84.96;99611.19;4979817;23;20046;-81
2023/01/26 12:49:50;;;;;;;0.90;0.90;;;;;;;-2.89;84.82;99623.56;4989516;28;20108;-81
2023/01/26 12:52:25;;;;;;;0.90;0.90;;;;;;;-2.93;84.71;99620.41;5007998;28;20073;-80
2023/01/26 12:55:01;;;;;;;1.00;1.00;;;;;;;-2.95;85.05;99634.72;5007401;28;20056;-83
2023/01/26 12:57:37;;;;;;;0.70;0.70;;;;;;;-2.96;85.19;99627.75;5004773;28;20575;-79